Terminal Aerodrome Forecast
Issued by NWS

Home | Current Version | Previous Version | Text Only | Print | Product List | Glossary On
Versions: 1 2 3 4 5 6 7 8 9 10 11 12 13 14 15 16 17 18 19 20 21 22 23 24 25 26 27 28 29 30 31
904
FTUS43 KDLH 231808 AAA
TAFBRD
TAF AMD
KBRD 231808Z 2318/2418 29007KT 6SM BR BKN010 OVC014
     FM241100 00000KT 6SM BR OVC015
     FM241300 10003KT P6SM OVC008=

USA.gov is the U.S. government's official web portal to all federal, state and local government web resources and services.